Time;durP1;ratioP1;P1;durP2;ratioP2;P2;SDS_P1;SDS_P2;PMS_P1;PMS_P2;Temp;Humidity;BMP_temperature;BMP_pressure;BME280_temperature;BME280_humidity;BME280_pressure;Samples;Min_cycle;Max_cycle;Signal;HPM_P1;HPM_P2
2022/11/11 00:00:00;;;;;;;11.63;6.45;;;;;;;2.25;100.00;97263.84;1034629;28;20022;-66
2022/11/11 00:00:31;;;;;;;12.57;6.13;;;;;;;2.24;100.00;97257.03;1034589;28;20018;-69
2022/11/11 00:01:03;;;;;;;13.50;5.95;;;;;;;2.19;100.00;97249.00;1030663;28;20018;-70
2022/11/11 00:01:33;;;;;;;12.43;5.88;;;;;;;2.24;100.00;97265.59;1025327;28;20105;-69
2022/11/11 00:02:04;;;;;;;14.23;6.45;;;;;;;2.24;100.00;97254.44;1023302;28;20274;-68
2022/11/11 00:02:34;;;;;;;10.40;5.95;;;;;;;2.28;100.00;97266.06;1018033;29;20379;-69
2022/11/11 00:03:05;;;;;;;11.07;6.57;;;;;;;2.30;100.00;97257.16;1022468;28;20066;-68
2022/11/11 00:03:35;;;;;;;9.27;5.90;;;;;;;2.32;100.00;97257.00;1026317;28;20031;-69
2022/11/11 00:04:06;;;;;;;9.32;6.07;;;;;;;2.24;100.00;97244.88;1026458;28;20049;-68
2022/11/11 00:04:36;;;;;;;13.32;6.55;;;;;;;2.29;100.00;97257.34;1030552;28;20041;-68
2022/11/11 00:05:07;;;;;;;12.10;6.35;;;;;;;2.33;100.00;97253.41;1026441;28;20022;-68
2022/11/11 00:05:37;;;;;;;10.80;6.50;;;;;;;2.31;100.00;97252.78;1026063;28;20425;-68
2022/11/11 00:06:12;;;;;;;16.20;6.53;;;;;;;2.24;100.00;97241.50;1018747;29;20036;-68
2022/11/11 00:06:43;;;;;;;8.15;6.07;;;;;;;2.29;100.00;97252.97;1022446;29;20087;-68
2022/11/11 00:07:13;;;;;;;10.65;6.63;;;;;;;2.31;100.00;97255.38;1022303;29;20263;-67
2022/11/11 00:07:43;;;;;;;10.32;7.30;;;;;;;2.29;100.00;97252.97;1023030;28;20533;-68
2022/11/11 00:08:14;;;;;;;9.50;6.38;;;;;;;2.30;100.00;97248.59;1026282;28;20019;-68
2022/11/11 00:08:46;;;;;;;12.40;6.97;;;;;;;2.29;100.00;97258.16;1023927;28;20462;-68
2022/11/11 00:09:16;;;;;;;10.05;6.60;;;;;;;2.20;100.00;97240.25;1018282;29;20415;-68
2022/11/11 00:09:46;;;;;;;12.13;7.10;;;;;;;2.29;100.00;97257.34;1014554;29;20802;-66
2022/11/11 00:10:17;;;;;;;14.77;8.07;;;;;;;2.28;100.00;97253.94;1018315;29;20039;-68
2022/11/11 00:10:47;;;;;;;14.50;6.63;;;;;;;2.22;100.00;97244.28;1018612;29;20031;-66
2022/11/11 00:11:18;;;;;;;13.02;8.00;;;;;;;2.23;100.00;97248.47;1026453;28;20436;-66
2022/11/11 00:11:48;;;;;;;12.38;7.35;;;;;;;2.28;100.00;97258.28;1023455;28;20061;-68
2022/11/11 00:12:19;;;;;;;10.65;7.18;;;;;;;2.26;100.00;97253.31;1025406;28;20027;-67
2022/11/11 00:12:49;;;;;;;11.38;7.25;;;;;;;2.26;100.00;97257.69;1026345;28;20681;-67
2022/11/11 00:13:20;;;;;;;11.32;7.20;;;;;;;2.26;100.00;97257.69;1026395;28;20037;-68
2022/11/11 00:13:50;;;;;;;12.48;7.18;;;;;;;2.25;100.00;97259.47;1019723;29;20028;-68
2022/11/11 00:14:21;;;;;;;17.67;8.02;;;;;;;2.25;100.00;97256.06;1030310;28;20034;-67
2022/11/11 00:14:51;;;;;;;12.70;7.43;;;;;;;2.25;100.00;97262.06;1030545;28;20050;-68
2022/11/11 00:15:22;;;;;;;14.02;6.78;;;;;;;2.28;100.00;97258.28;1030402;28;20046;-67
2022/11/11 00:15:52;;;;;;;12.20;7.50;;;;;;;2.26;100.00;97255.09;1022500;28;20034;-71
2022/11/11 00:16:23;;;;;;;18.15;7.05;;;;;;;2.26;100.00;97257.69;1022364;28;20115;-67
2022/11/11 00:25:14;;;;;;;14.90;8.70;;;;;;;2.22;100.00;97240.88;1017932;29;20286;-67
2022/11/11 00:25:44;;;;;;;15.23;9.02;;;;;;;2.18;100.00;97239.59;1020636;28;20365;-66
2022/11/11 00:26:15;;;;;;;13.60;8.45;;;;;;;2.24;100.00;97250.06;1014117;29;20405;-66
2022/11/11 00:26:45;;;;;;;22.20;9.55;;;;;;;2.22;100.00;97249.44;1014284;29;20039;-68
2022/11/11 00:27:16;;;;;;;17.33;10.18;;;;;;;2.23;100.00;97253.66;1010527;29;20028;-67
2022/11/11 00:27:46;;;;;;;15.13;9.63;;;;;;;2.21;100.00;97252.19;1014374;29;20036;-67
2022/11/11 00:28:17;;;;;;;15.00;9.63;;;;;;;2.02;100.00;97220.63;1029296;28;20061;-68
2022/11/11 00:28:47;;;;;;;20.15;10.85;;;;;;;2.17;100.00;97238.00;1026305;28;20031;-67
2022/11/11 00:29:19;;;;;;;17.80;9.75;;;;;;;2.20;100.00;97245.41;1024521;28;20035;-70
2022/11/11 00:29:50;;;;;;;18.30;9.00;;;;;;;2.18;100.00;97239.59;1026589;28;20031;-69
2022/11/11 00:30:20;;;;;;;18.33;9.57;;;;;;;2.20;100.00;97242.81;1026679;28;20274;-68
2022/11/11 00:30:51;;;;;;;15.05;9.55;;;;;;;2.20;100.00;97245.41;1035326;28;20472;-68
2022/11/11 00:31:21;;;;;;;14.27;8.15;;;;;;;2.11;100.00;97235.13;1037981;28;20103;-67
2022/11/11 00:32:41;;;;;;;14.13;8.32;;;;;;;2.20;100.00;97245.41;1031973;28;20423;-68
2022/11/11 00:33:11;;;;;;;14.70;8.13;;;;;;;2.21;100.00;97239.25;1025925;28;20290;-68
2022/11/11 00:33:42;;;;;;;14.20;8.52;;;;;;;2.20;100.00;97248.81;1022156;29;20038;-68
2022/11/11 00:34:12;;;;;;;12.75;8.40;;;;;;;2.19;100.00;97236.84;1020764;29;20044;-69
2022/11/11 00:35:51;;;;;;;14.00;8.73;;;;;;;2.21;100.00;97240.06;1023132;28;20035;-67
2022/11/11 00:35:52;;;;;;;13.27;7.95;;;;;;;2.15;100.00;97237.34;1036958;28;20052;-66
2022/11/11 00:36:22;;;;;;;14.05;7.82;;;;;;;2.10;100.00;97227.50;1029308;28;20030;-67
2022/11/11 00:36:52;;;;;;;23.63;9.00;;;;;;;2.21;100.00;97241.84;1022324;29;20294;-66
2022/11/11 00:37:23;;;;;;;13.52;8.07;;;;;;;2.20;100.00;97242.81;1026584;28;20033;-67
2022/11/11 00:37:53;;;;;;;14.88;8.57;;;;;;;2.18;100.00;97237.84;1022578;28;20031;-66
2022/11/11 00:39:13;;;;;;;15.43;9.18;;;;;;;2.28;100.00;97235.00;1021165;29;20042;-66
2022/11/11 00:39:44;;;;;;;14.60;7.95;;;;;;;2.29;100.00;97241.81;1013214;29;20787;-67
2022/11/11 00:40:15;;;;;;;13.30;8.20;;;;;;;2.31;100.00;97237.22;1024866;28;20054;-67
2022/11/11 00:40:45;;;;;;;13.73;8.65;;;;;;;2.33;100.00;97238.69;1026534;28;20292;-68
2022/11/11 00:41:19;;;;;;;12.43;8.15;;;;;;;2.32;100.00;97237.09;1026601;28;20039;-68
2022/11/11 00:41:50;;;;;;;15.43;8.65;;;;;;;2.28;100.00;97228.06;1034540;28;20026;-67
2022/11/11 00:42:20;;;;;;;14.60;8.45;;;;;;;2.38;100.00;97239.94;1025241;28;20289;-67
2022/11/11 00:42:51;;;;;;;17.05;10.05;;;;;;;2.42;100.00;97243.81;1030349;28;20053;-68
2022/11/11 00:43:21;;;;;;;16.42;9.52;;;;;;;2.42;100.00;97236.84;1025947;28;20489;-66
2022/11/11 00:43:51;;;;;;;18.55;9.55;;;;;;;2.42;100.00;97234.25;1026375;28;20464;-66
2022/11/11 00:44:22;;;;;;;19.50;10.07;;;;;;;2.49;100.00;97234.38;1018675;29;20098;-69
2022/11/11 00:44:52;;;;;;;19.15;10.02;;;;;;;2.51;100.00;97229.81;1019433;28;20027;-70
2022/11/11 00:45:23;;;;;;;17.17;9.80;;;;;;;2.45;100.00;97231.31;1022098;28;20030;-69
2022/11/11 00:50:57;;;;;;;18.95;9.27;;;;;;;2.58;100.00;97241.91;1030608;28;20037;-69
2022/11/11 00:50:58;;;;;;;15.45;8.27;;;;;;;2.54;100.00;97238.03;1026967;28;20266;-70
2022/11/11 00:51:29;;;;;;;18.25;9.35;;;;;;;2.53;100.00;97238.22;1026500;28;20273;-70
2022/11/11 00:51:59;;;;;;;19.23;9.32;;;;;;;2.55;100.00;97247.44;1021998;29;20267;-69
2022/11/11 00:52:30;;;;;;;14.07;8.30;;;;;;;2.56;100.00;97251.63;1028084;28;20068;-68
2022/11/11 00:53:02;;;;;;;14.55;8.80;;;;;;;2.54;100.00;97237.22;1034642;28;20077;-69
2022/11/11 00:53:34;;;;;;;17.55;9.30;;;;;;;2.50;100.00;97238.56;1024293;28;20126;-69
2022/11/11 00:54:04;;;;;;;17.48;9.40;;;;;;;2.52;100.00;97252.16;1022241;29;20792;-67
2022/11/11 00:54:35;;;;;;;14.75;8.75;;;;;;;2.53;100.00;97249.38;1018219;29;20313;-68
2022/11/11 00:55:06;;;;;;;16.25;8.40;;;;;;;2.53;100.00;97244.19;1019490;28;20055;-69
2022/11/11 00:55:36;;;;;;;21.55;9.27;;;;;;;2.50;100.00;97252.31;1026110;28;20042;-67
2022/11/11 00:56:07;;;;;;;17.35;8.60;;;;;;;2.49;100.00;97255.91;1030451;28;20632;-68
2022/11/11 00:56:37;;;;;;;14.52;8.27;;;;;;;2.49;100.00;97255.09;1032477;28;20033;-67
2022/11/11 00:57:08;;;;;;;14.70;7.85;;;;;;;2.49;100.00;97255.91;1029604;28;20278;-71
2022/11/11 00:57:38;;;;;;;13.95;9.05;;;;;;;2.48;100.00;97254.28;1028260;28;20795;-68
2022/11/11 00:58:09;;;;;;;14.20;7.60;;;;;;;2.35;100.00;97236.72;1022706;28;20845;-67
2022/11/11 00:58:39;;;;;;;17.98;8.75;;;;;;;2.47;100.00;97257.03;1024524;28;20019;-67
2022/11/11 00:59:09;;;;;;;12.70;7.90;;;;;;;2.45;100.00;97257.22;1023530;28;20031;-67
2022/11/11 00:59:40;;;;;;;17.02;9.73;;;;;;;2.47;100.00;97257.84;1026049;28;20204;-69
2022/11/11 01:00:11;;;;;;;14.77;8.80;;;;;;;2.46;100.00;97256.25;1026806;28;20033;-67
2022/11/11 01:00:42;;;;;;;24.83;8.80;;;;;;;2.50;100.00;97259.28;1025927;28;20023;-68
2022/11/11 01:01:13;;;;;;;28.02;10.43;;;;;;;2.43;100.00;97251.41;1030200;28;20277;-66
2022/11/11 01:01:43;;;;;;;26.10;9.40;;;;;;;2.47;100.00;97263.03;1032512;28;20296;-67
2022/11/11 01:02:14;;;;;;;28.55;9.77;;;;;;;2.44;100.00;97250.41;1028003;28;20129;-68
2022/11/11 01:02:44;;;;;;;30.40;8.63;;;;;;;2.45;100.00;97262.41;1033101;28;20089;-66
2022/11/11 01:03:15;;;;;;;19.67;9.23;;;;;;;2.44;100.00;97263.38;1032051;28;20034;-69
2022/11/11 01:03:45;;;;;;;14.00;8.52;;;;;;;2.42;100.00;97267.94;1027156;28;20039;-68
2022/11/11 01:04:16;;;;;;;19.73;8.20;;;;;;;2.42;100.00;97260.16;1030982;28;20292;-68
2022/11/11 01:04:46;;;;;;;13.82;8.13;;;;;;;2.41;100.00;97255.94;1026119;28;20027;-67
2022/11/11 01:05:17;;;;;;;17.80;8.35;;;;;;;2.42;100.00;97262.75;1025746;28;20105;-69
2022/11/11 01:05:48;;;;;;;16.10;9.02;;;;;;;2.43;100.00;97263.56;1025879;28;20030;-68
2022/11/11 01:06:18;;;;;;;16.50;8.73;;;;;;;2.44;100.00;97265.97;1025901;28;20152;-69
2022/11/11 01:06:49;;;;;;;15.05;8.30;;;;;;;2.44;100.00;97265.97;1025969;28;20809;-67
2022/11/11 01:07:19;;;;;;;19.05;8.70;;;;;;;2.42;100.00;97260.16;1027806;28;20045;-69
2022/11/11 01:07:53;;;;;;;20.85;8.48;;;;;;;2.39;100.00;97260.50;1029696;28;20029;-68
2022/11/11 01:08:24;;;;;;;13.07;8.18;;;;;;;2.38;100.00;97265.84;1030266;28;20101;-67
2022/11/11 01:08:55;;;;;;;18.40;8.88;;;;;;;2.35;100.00;97264.44;1031464;28;20352;-69
2022/11/11 01:09:25;;;;;;;17.65;8.85;;;;;;;2.35;100.00;97265.22;1026460;28;20780;-66
2022/11/11 01:09:56;;;;;;;14.70;8.50;;;;;;;2.36;100.00;97268.63;1028891;28;20029;-67
2022/11/11 01:10:38;;;;;;;16.60;7.78;;;;;;;2.35;100.00;97261.84;1027031;28;20051;-67
2022/11/11 01:11:16;;;;;;;14.90;8.38;;;;;;;2.33;100.00;97261.19;1033341;28;20034;-68
2022/11/11 01:11:46;;;;;;;17.98;8.65;;;;;;;2.29;100.00;97262.53;1037969;28;20820;-69
2022/11/11 01:12:17;;;;;;;16.80;7.88;;;;;;;2.27;100.00;97260.09;1030932;28;20284;-66
2022/11/11 01:12:47;;;;;;;17.60;8.65;;;;;;;2.21;100.00;97250.41;1029844;28;20018;-66
2022/11/11 01:13:26;;;;;;;12.95;8.20;;;;;;;2.27;100.00;97261.88;1027412;28;20034;-68
2022/11/11 01:13:56;;;;;;;16.08;7.43;;;;;;;2.24;100.00;97260.44;1026047;28;20019;-66
2022/11/11 01:14:26;;;;;;;12.80;7.85;;;;;;;2.17;100.00;97245.75;1025908;28;20270;-69
2022/11/11 01:14:57;;;;;;;20.63;8.02;;;;;;;2.23;100.00;97258.03;1027100;28;20030;-68
2022/11/11 01:15:27;;;;;;;16.00;7.85;;;;;;;2.23;100.00;97258.03;1029976;28;20034;-67
2022/11/11 01:16:00;;;;;;;12.90;7.72;;;;;;;2.22;100.00;97261.59;1030396;28;20018;-66
2022/11/11 01:16:30;;;;;;;15.93;7.88;;;;;;;2.19;100.00;97262.75;1021957;29;20120;-68
2022/11/11 01:17:01;;;;;;;15.90;7.68;;;;;;;2.18;100.00;97262.91;1018723;29;20322;-66
2022/11/11 01:17:31;;;;;;;14.80;7.18;;;;;;;2.18;100.00;97265.47;1022879;28;20081;-67
2022/11/11 01:18:02;;;;;;;13.52;7.53;;;;;;;2.15;100.00;97263.22;1026240;28;20484;-69
2022/11/11 01:18:32;;;;;;;14.85;7.85;;;;;;;2.10;100.00;97259.38;1030214;28;20435;-67
2022/11/11 01:19:02;;;;;;;15.30;7.72;;;;;;;2.11;100.00;97263.59;1026490;28;20018;-68
2022/11/11 01:19:33;;;;;;;17.08;7.63;;;;;;;2.12;100.00;97262.63;1026166;28;20039;-68
2022/11/11 01:20:04;;;;;;;11.85;7.65;;;;;;;2.13;100.00;97263.41;1024248;28;20035;-68
2022/11/11 01:20:36;;;;;;;13.23;7.60;;;;;;;2.11;100.00;97262.78;1030287;28;20030;-66
2022/11/11 01:21:09;;;;;;;14.32;8.32;;;;;;;2.06;100.00;97257.31;1038225;28;20116;-66
2022/11/11 01:21:39;;;;;;;12.18;7.40;;;;;;;2.09;100.00;97256.97;1030416;28;20281;-68
2022/11/11 01:22:10;;;;;;;17.02;7.78;;;;;;;1.88;100.00;97224.75;1021381;29;20876;-66
2022/11/11 01:22:40;;;;;;;13.75;7.85;;;;;;;2.06;100.00;97252.94;1026459;28;20030;-67
2022/11/11 01:23:11;;;;;;;13.43;7.35;;;;;;;1.98;100.00;97250.41;1027038;28;20027;-67
2022/11/11 01:23:42;;;;;;;14.32;7.40;;;;;;;2.03;100.00;97248.09;1026151;28;20065;-68
2022/11/11 01:24:12;;;;;;;14.20;7.10;;;;;;;2.07;100.00;97253.75;1030188;28;20300;-66
2022/11/11 01:24:44;;;;;;;14.55;7.97;;;;;;;1.96;100.00;97236.81;1024684;28;20027;-67
2022/11/11 01:25:15;;;;;;;14.43;8.13;;;;;;;2.05;100.00;97248.75;1022813;28;20035;-70
2022/11/11 01:25:46;;;;;;;15.68;9.75;;;;;;;2.05;100.00;97253.94;1018813;29;20314;-69
2022/11/11 01:26:21;;;;;;;14.75;7.72;;;;;;;2.04;100.00;97249.72;1018209;29;20031;-66
2022/11/11 01:26:52;;;;;;;13.77;7.82;;;;;;;1.98;100.00;97237.47;1023207;28;20290;-70
2022/11/11 01:27:22;;;;;;;15.55;7.95;;;;;;;2.03;100.00;97247.31;1026648;28;20265;-69
2022/11/11 01:27:52;;;;;;;11.40;7.53;;;;;;;2.02;100.00;97246.50;1038963;28;20085;-69
2022/11/11 01:28:23;;;;;;;13.73;7.78;;;;;;;2.01;100.00;97250.06;1038852;28;20113;-68
2022/11/11 01:28:54;;;;;;;17.08;7.47;;;;;;;1.99;100.00;97254.59;1038887;28;20103;-67
2022/11/11 01:29:25;;;;;;;14.43;7.05;;;;;;;1.98;100.00;97250.41;1038247;28;20561;-69
2022/11/11 01:29:55;;;;;;;12.30;7.32;;;;;;;1.98;100.00;97249.59;1038890;28;20299;-67
2022/11/11 01:30:26;;;;;;;12.38;6.97;;;;;;;1.94;100.00;97243.94;1038826;28;20033;-66
2022/11/11 01:31:01;;;;;;;14.13;7.25;;;;;;;1.96;100.00;97247.19;1030326;28;20412;-68
2022/11/11 01:31:32;;;;;;;13.35;7.30;;;;;;;1.96;100.00;97248.97;1026517;28;20101;-68
2022/11/11 01:32:02;;;;;;;11.38;7.10;;;;;;;1.93;100.00;97255.28;1022421;29;20765;-69
2022/11/11 01:32:32;;;;;;;11.38;7.10;;;;;;;1.96;100.00;97261.91;1023208;28;20639;-69
2022/11/11 01:33:03;;;;;;;11.02;7.38;;;;;;;1.96;100.00;97260.13;1030405;28;20520;-68
2022/11/11 01:33:34;;;;;;;11.50;7.30;;;;;;;1.90;100.00;97253.03;1030871;28;20553;-68
2022/11/11 01:34:04;;;;;;;13.70;7.93;;;;;;;1.95;100.00;97268.06;1026619;28;20034;-68
2022/11/11 01:34:35;;;;;;;14.40;8.07;;;;;;;1.94;100.00;97264.66;1026286;28;20030;-67
2022/11/11 01:35:06;;;;;;;11.82;7.13;;;;;;;1.93;100.00;97262.25;1022663;28;20031;-68
2022/11/11 01:35:39;;;;;;;11.50;7.32;;;;;;;1.89;100.00;97256.59;1030958;28;20043;-69
2022/11/11 01:36:24;;;;;;;14.95;7.72;;;;;;;1.89;100.00;97261.78;1035473;28;20269;-69
2022/11/11 01:36:54;;;;;;;13.07;7.45;;;;;;;1.86;100.00;97262.91;1038939;28;20728;-69
2022/11/11 01:37:24;;;;;;;11.70;6.80;;;;;;;1.86;100.00;97262.13;1038793;28;20301;-68
2022/11/11 01:37:56;;;;;;;12.82;7.68;;;;;;;1.85;100.00;97266.50;1038845;28;20037;-64
2022/11/11 01:38:26;;;;;;;14.20;7.15;;;;;;;1.85;100.00;97265.69;1036311;28;20037;-68
2022/11/11 01:38:58;;;;;;;12.38;7.15;;;;;;;1.82;100.00;97253.88;1037259;28;20276;-69
2022/11/11 01:39:28;;;;;;;15.82;7.70;;;;;;;1.76;100.00;97248.59;1038624;28;20025;-67
2022/11/11 01:39:59;;;;;;;15.57;7.45;;;;;;;1.85;100.00;97265.69;1033930;28;20742;-66
2022/11/11 01:40:29;;;;;;;12.55;7.50;;;;;;;1.86;100.00;97262.91;1024530;28;20046;-69
2022/11/11 01:41:00;;;;;;;11.60;7.43;;;;;;;1.77;100.00;97248.41;1021270;28;20039;-67
2022/11/11 01:41:32;;;;;;;12.55;7.22;;;;;;;1.82;100.00;97250.50;1032576;28;20026;-67
2022/11/11 01:42:02;;;;;;;17.67;7.53;;;;;;;1.85;100.00;97256.13;1021094;28;20023;-66
2022/11/11 01:42:49;;;;;;;16.00;7.60;;;;;;;1.85;100.00;97260.50;1021196;28;20370;-68
2022/11/11 01:43:22;;;;;;;18.92;7.75;;;;;;;1.85;100.00;97257.94;1020923;28;20031;-69
2022/11/11 01:43:53;;;;;;;18.02;8.05;;;;;;;1.83;100.00;97259.88;1021988;28;20282;-69
2022/11/11 01:44:59;;;;;;;15.82;7.70;;;;;;;1.83;100.00;97258.06;1030069;28;21161;-69
2022/11/11 01:45:53;;;;;;;14.84;7.76;;;;;;;1.82;100.00;97255.69;1026286;28;20034;-68
2022/11/11 01:46:38;;;;;;;29.58;6.70;;;;;;;1.75;100.00;97239.22;1019484;29;20846;-70
2022/11/11 01:47:09;;;;;;;12.82;7.68;;;;;;;1.78;100.00;97251.81;1010377;29;20265;-69
2022/11/11 01:49:57;;;;;;;11.88;7.05;;;;;;;1.78;100.00;97251.81;1017899;29;20267;-64
2022/11/11 01:50:27;;;;;;;13.23;6.93;;;;;;;1.78;100.00;97249.22;1016483;29;20761;-71
2022/11/11 01:50:57;;;;;;;10.55;6.95;;;;;;;1.71;100.00;97237.91;1011464;29;20264;-69
2022/11/11 01:51:33;;;;;;;14.85;7.75;;;;;;;1.78;100.00;97254.41;1012399;29;20190;-69
2022/11/11 01:52:11;;;;;;;14.43;7.72;;;;;;;1.76;100.00;97253.75;1010591;29;20032;-66
2022/11/11 01:52:41;;;;;;;19.45;7.38;;;;;;;1.72;100.00;97250.69;1015982;29;20307;-70
2022/11/11 01:53:11;;;;;;;13.43;7.70;;;;;;;1.74;100.00;97253.09;1014601;29;20276;-67
2022/11/11 01:53:42;;;;;;;14.88;6.75;;;;;;;1.75;100.00;97254.75;1017678;29;20472;-70
2022/11/11 01:54:20;;;;;;;13.10;7.90;;;;;;;1.76;100.00;97256.34;1009460;29;20062;-67
2022/11/11 01:54:54;;;;;;;13.42;7.98;;;;;;;1.76;100.00;97256.34;1019351;28;20683;-68
2022/11/11 01:55:25;;;;;;;13.60;8.10;;;;;;;1.76;100.00;97256.34;1029463;28;20022;-68
2022/11/11 01:55:56;;;;;;;15.00;8.35;;;;;;;1.76;100.00;97256.34;1026317;28;20266;-69
2022/11/11 01:56:26;;;;;;;15.57;7.43;;;;;;;1.74;100.00;97250.53;1025370;28;20030;-68
2022/11/11 01:57:00;;;;;;;11.85;7.97;;;;;;;1.73;100.00;97256.69;1029045;28;20078;-70
2022/11/11 01:57:33;;;;;;;13.23;7.93;;;;;;;1.71;100.00;97253.44;1026708;28;20014;-66
2022/11/11 01:58:06;;;;;;;13.40;7.55;;;;;;;1.70;100.00;97238.91;1028393;28;21200;-66
2022/11/11 01:58:36;;;;;;;14.20;7.75;;;;;;;1.67;100.00;97241.81;1026749;28;20320;-70
2022/11/11 01:59:10;;;;;;;13.23;7.07;;;;;;;1.50;100.00;97220.41;1029780;28;20253;-69
2022/11/11 01:59:41;;;;;;;14.27;7.60;;;;;;;1.69;100.00;97239.88;1029406;28;20126;-68
2022/11/11 02:00:13;;;;;;;15.20;7.78;;;;;;;1.63;100.00;97244.75;1027062;28;20845;-67
2022/11/11 02:00:44;;;;;;;19.40;8.18;;;;;;;1.69;100.00;97247.66;1034844;28;20092;-68
2022/11/11 02:01:14;;;;;;;14.32;7.72;;;;;;;1.67;100.00;97245.22;1032759;28;20268;-70
2022/11/11 02:01:44;;;;;;;14.20;8.38;;;;;;;1.65;100.00;97239.44;1034252;28;20021;-66
2022/11/11 02:02:21;;;;;;;13.07;7.70;;;;;;;1.68;100.00;97239.09;1037979;28;20882;-70
2022/11/11 02:02:57;;;;;;;13.10;7.65;;;;;;;1.68;100.00;97239.09;1040732;28;20025;-64
2022/11/11 02:03:29;;;;;;;12.95;7.35;;;;;;;1.66;100.00;97246.19;1036769;28;20845;-65
2022/11/11 02:05:45;;;;;;;16.72;7.48;;;;;;;1.68;100.00;97246.84;1021337;29;20047;-66
2022/11/11 02:06:15;;;;;;;15.15;8.10;;;;;;;1.65;100.00;97244.59;1024536;28;20071;-66
2022/11/11 02:06:47;;;;;;;14.32;8.52;;;;;;;1.65;100.00;97255.75;1033982;28;20029;-66
2022/11/11 02:07:18;;;;;;;10.80;7.38;;;;;;;1.69;100.00;97250.25;1031783;28;20026;-69
2022/11/11 02:07:48;;;;;;;18.92;7.78;;;;;;;1.63;100.00;97244.75;1034897;28;20838;-69
2022/11/11 02:08:33;;;;;;;17.92;9.10;;;;;;;1.68;100.00;97252.03;1034257;28;20104;-65
2022/11/11 02:09:03;;;;;;;15.48;8.20;;;;;;;1.68;100.00;97249.44;1030145;28;20437;-66
2022/11/11 02:09:34;;;;;;;19.38;8.45;;;;;;;1.68;100.00;97253.78;1025805;28;20046;-64
2022/11/11 02:10:05;;;;;;;13.18;8.05;;;;;;;1.65;100.00;97250.56;1025907;28;20026;-68
2022/11/11 02:10:35;;;;;;;13.80;8.70;;;;;;;1.65;100.00;97250.56;1023953;28;20035;-68
2022/11/11 02:11:15;;;;;;;11.68;7.30;;;;;;;1.65;100.00;97252.34;1019990;29;20090;-68
2022/11/11 02:15:02;;;;;;;14.52;7.54;;;;;;;1.51;100.00;97243.53;1032081;28;20276;-68
2022/11/11 02:15:33;;;;;;;13.98;8.15;;;;;;;1.58;100.00;97249.63;1028820;28;20026;-69
2022/11/11 02:16:04;;;;;;;18.48;8.88;;;;;;;1.59;100.00;97253.81;1029426;28;20024;-68
2022/11/11 02:16:34;;;;;;;15.73;8.13;;;;;;;1.57;100.00;97247.19;1027374;28;20030;-70
2022/11/11 02:17:07;;;;;;;20.40;7.90;;;;;;;1.53;100.00;97240.75;1033984;28;20581;-69
2022/11/11 02:17:37;;;;;;;13.68;8.38;;;;;;;1.57;100.00;97242.84;1037961;28;20056;-68
2022/11/11 02:18:07;;;;;;;15.63;8.27;;;;;;;1.61;100.00;97251.88;1031195;28;20049;-68
2022/11/11 02:18:38;;;;;;;21.63;9.27;;;;;;;1.58;100.00;97239.28;1030921;28;20026;-69
2022/11/11 02:19:08;;;;;;;24.95;9.75;;;;;;;1.53;100.00;97236.38;1034263;28;20022;-67
2022/11/11 02:19:52;;;;;;;16.52;8.27;;;;;;;1.56;100.00;97236.06;1027057;28;20030;-67
2022/11/11 02:20:24;;;;;;;14.07;7.50;;;;;;;1.58;100.00;97244.47;1028464;28;20097;-69
2022/11/11 02:20:55;;;;;;;13.68;8.07;;;;;;;1.60;100.00;97242.50;1029401;28;20336;-71
2022/11/11 02:21:34;;;;;;;12.55;7.63;;;;;;;1.62;100.00;97250.91;1032917;28;21088;-68
2022/11/11 02:22:05;;;;;;;19.05;8.68;;;;;;;1.57;100.00;97236.84;1024121;28;20278;-70
2022/11/11 02:22:45;;;;;;;13.90;7.85;;;;;;;1.55;100.00;97241.41;1028592;28;20274;-69
2022/11/11 02:23:40;;;;;;;12.38;8.05;;;;;;;1.61;100.00;97249.31;1018735;29;20035;-70
2022/11/11 02:24:14;;;;;;;12.85;8.50;;;;;;;1.62;100.00;97256.09;1025163;28;20035;-69
2022/11/11 02:24:45;;;;;;;20.42;8.45;;;;;;;1.62;100.00;97256.09;1026384;28;20273;-69
2022/11/11 02:25:18;;;;;;;18.02;9.40;;;;;;;1.51;100.00;97233.19;1026233;28;20285;-68
2022/11/11 02:25:48;;;;;;;13.25;8.23;;;;;;;1.57;100.00;97245.41;1026293;28;20034;-68
2022/11/11 02:26:19;;;;;;;15.27;7.95;;;;;;;1.54;100.00;97243.19;1030405;28;20269;-68
2022/11/11 02:26:49;;;;;;;13.30;8.00;;;;;;;1.63;100.00;97254.28;1026557;28;20018;-70
2022/11/11 02:27:19;;;;;;;14.82;8.27;;;;;;;1.62;100.00;97250.09;1015387;29;20023;-63
2022/11/11 02:27:51;;;;;;;14.93;8.63;;;;;;;1.61;100.00;97254.47;1013364;28;20099;-69
2022/11/11 02:28:23;;;;;;;14.82;8.38;;;;;;;1.62;100.00;97250.91;1021418;28;20039;-71
2022/11/11 02:28:53;;;;;;;12.88;8.68;;;;;;;1.61;100.00;97258.81;1022324;28;20274;-69
2022/11/11 02:29:24;;;;;;;14.23;8.60;;;;;;;1.61;100.00;97254.47;1017862;29;20259;-68
2022/11/11 02:29:55;;;;;;;13.27;7.97;;;;;;;1.62;100.00;97256.09;1014440;29;20036;-67
2022/11/11 02:30:25;;;;;;;17.70;8.25;;;;;;;1.60;100.00;97258.03;1018153;29;20388;-68
2022/11/11 02:30:56;;;;;;;11.68;7.95;;;;;;;1.61;100.00;97258.81;1017931;29;20276;-68
2022/11/11 02:31:28;;;;;;;16.35;8.18;;;;;;;1.56;100.00;97253.34;1015434;29;20076;-69
2022/11/11 02:31:58;;;;;;;13.10;7.22;;;;;;;1.59;100.00;97256.41;1022003;29;20034;-67
2022/11/11 02:32:28;;;;;;;10.93;7.47;;;;;;;1.60;100.00;97258.03;1021625;28;20659;-66
2022/11/11 02:32:59;;;;;;;15.52;7.72;;;;;;;1.61;100.00;97251.88;1029884;28;20027;-68
2022/11/11 02:33:29;;;;;;;14.02;8.00;;;;;;;1.61;100.00;97254.47;1034019;28;20041;-66
2022/11/11 02:34:00;;;;;;;21.17;7.97;;;;;;;1.63;100.00;97252.50;1033935;28;20033;-66
2022/11/11 02:34:31;;;;;;;14.93;8.20;;;;;;;1.54;100.00;97243.19;1034107;28;20030;-66
2022/11/11 02:35:04;;;;;;;12.20;8.02;;;;;;;1.64;100.00;97254.16;1026156;28;20054;-66
2022/11/11 02:35:36;;;;;;;15.23;7.95;;;;;;;1.63;100.00;97257.69;1030359;28;20352;-66
2022/11/11 02:36:09;;;;;;;14.27;8.02;;;;;;;1.64;100.00;97259.31;1030057;28;20312;-68
2022/11/11 02:36:40;;;;;;;24.38;9.88;;;;;;;1.63;100.00;97256.88;1025820;28;20262;-67
2022/11/11 02:37:10;;;;;;;22.27;8.48;;;;;;;1.61;100.00;97259.66;1025976;28;20324;-67
2022/11/11 02:37:43;;;;;;;11.60;7.68;;;;;;;1.63;100.00;97256.88;1029703;28;20030;-66
2022/11/11 02:38:13;;;;;;;21.25;8.27;;;;;;;1.63;100.00;97262.06;1021792;28;20027;-65
2022/11/11 02:38:44;;;;;;;12.48;8.00;;;;;;;1.64;100.00;97266.25;1017938;29;20306;-66
2022/11/11 02:39:14;;;;;;;15.45;7.88;;;;;;;1.63;100.00;97264.63;1023327;28;20031;-67
2022/11/11 02:39:46;;;;;;;15.15;8.88;;;;;;;1.63;100.00;97268.03;1029680;28;20026;-68
2022/11/11 02:40:32;;;;;;;17.13;8.60;;;;;;;1.64;100.00;97271.41;1029791;28;20030;-68
2022/11/11 02:41:57;;;;;;;12.60;7.95;;;;;;;1.62;100.00;97269.00;1030250;28;20268;-69
2022/11/11 02:42:27;;;;;;;12.13;7.97;;;;;;;1.59;100.00;97266.75;1033478;28;20292;-68
2022/11/11 02:42:58;;;;;;;12.98;8.00;;;;;;;1.51;100.00;97247.88;1030181;28;20270;-67
2022/11/11 02:43:29;;;;;;;13.15;7.65;;;;;;;1.51;100.00;97259.03;1028643;28;20069;-67
2022/11/11 02:43:59;;;;;;;13.38;7.70;;;;;;;1.56;100.00;97263.72;1018207;29;20039;-68
2022/11/11 02:44:30;;;;;;;16.73;7.95;;;;;;;1.59;100.00;97274.53;1026040;28;20667;-69
2022/11/11 02:45:00;;;;;;;13.82;8.48;;;;;;;1.53;100.00;97256.28;1026104;28;20344;-67
2022/11/11 02:45:31;;;;;;;17.38;8.23;;;;;;;1.52;100.00;97260.66;1025938;28;20078;-67
2022/11/11 02:46:04;;;;;;;13.10;8.10;;;;;;;1.60;100.00;97268.38;1025847;28;20027;-68
2022/11/11 02:46:35;;;;;;;14.27;7.75;;;;;;;1.57;100.00;97268.69;1029911;28;20839;-68
2022/11/11 02:47:05;;;;;;;14.98;8.52;;;;;;;1.57;100.00;97271.28;1022559;28;20325;-69
2022/11/11 02:47:36;;;;;;;14.20;8.00;;;;;;;1.57;100.00;97278.25;1025552;28;20497;-68
2022/11/11 02:48:06;;;;;;;13.95;7.65;;;;;;;1.54;100.00;97274.22;1021994;29;20561;-68
2022/11/11 02:48:36;;;;;;;14.65;7.65;;;;;;;1.54;100.00;97270.81;1026087;28;20433;-67
2022/11/11 02:49:07;;;;;;;16.90;8.13;;;;;;;1.48;100.00;97263.75;1034387;28;20811;-68
2022/11/11 02:49:37;;;;;;;13.10;7.75;;;;;;;1.51;100.00;97271.16;1038209;28;20025;-66
2022/11/11 02:50:08;;;;;;;13.70;7.50;;;;;;;1.52;100.00;97278.75;1037920;28;20026;-68
2022/11/11 02:50:38;;;;;;;15.45;7.82;;;;;;;1.53;100.00;97272.59;1034126;28;20298;-69